Time;durP1;ratioP1;P1;durP2;ratioP2;P2;SDS_P1;SDS_P2;PMS_P1;PMS_P2;Temp;Humidity;BMP_temperature;BMP_pressure;BME280_temperature;BME280_humidity;BME280_pressure;Samples;Min_cycle;Max_cycle;Signal;HPM_P1;HPM_P2
2022/11/02 00:01:42;;;;;;;38.53;24.72;;;;;;;9.12;79.02;100677.34;2042418;87;27608;-62
2022/11/02 00:04:43;;;;;;;39.08;24.72;;;;;;;9.08;78.99;100680.60;2034254;86;29063;-61
2022/11/02 00:07:44;;;;;;;34.67;22.50;;;;;;;9.03;78.91;100676.36;2033732;87;30882;-62
2022/11/02 00:10:45;;;;;;;49.27;23.27;;;;;;;8.96;78.92;100683.26;2033863;87;33358;-62
2022/11/02 00:13:46;;;;;;;46.80;27.45;;;;;;;8.91;78.88;100680.35;2040256;87;30215;-62
2022/11/02 00:16:47;;;;;;;41.37;25.85;;;;;;;8.84;79.06;100680.19;2042810;86;28141;-62
2022/11/02 00:19:49;;;;;;;37.08;24.87;;;;;;;8.79;79.16;100685.67;2042583;86;28451;-62
2022/11/02 00:22:51;;;;;;;39.25;25.62;;;;;;;8.75;79.19;100689.41;2039569;86;31532;-62
2022/11/02 00:25:54;;;;;;;37.80;24.92;;;;;;;8.68;79.10;100693.20;2033688;87;32780;-62
2022/11/02 00:28:55;;;;;;;39.27;22.90;;;;;;;8.62;79.18;100695.16;2033806;87;30028;-62
2022/11/02 00:31:56;;;;;;;37.75;23.15;;;;;;;8.56;79.14;100694.50;2034688;87;27757;-62
2022/11/02 00:34:58;;;;;;;41.13;25.23;;;;;;;8.49;79.15;100691.17;2010094;88;29908;-62
2022/11/02 00:37:59;;;;;;;40.70;23.95;;;;;;;8.43;79.13;100691.37;2045100;87;32175;-63
2022/11/02 00:41:00;;;;;;;45.35;24.52;;;;;;;8.37;79.16;100692.43;2045075;87;33364;-62
2022/11/02 00:44:01;;;;;;;42.80;25.82;;;;;;;8.30;79.10;100691.77;2026653;87;30386;-62
2022/11/02 00:47:03;;;;;;;36.75;24.23;;;;;;;8.27;79.40;100693.68;2019564;88;27644;-62
2022/11/02 00:50:06;;;;;;;42.20;25.12;;;;;;;8.21;79.49;100693.43;2012407;87;29665;-63
2022/11/02 00:53:07;;;;;;;40.03;25.10;;;;;;;8.17;79.58;100698.45;2030027;87;31056;-63
2022/11/02 00:56:09;;;;;;;41.63;23.57;;;;;;;8.12;79.69;100714.63;2045175;87;34110;-63
2022/11/02 00:59:10;;;;;;;36.35;23.67;;;;;;;8.08;79.65;100712.11;2044866;87;29839;-63
2022/11/02 01:02:11;;;;;;;44.70;25.97;;;;;;;8.02;79.67;100716.71;2042104;87;27684;-63
2022/11/02 01:05:12;;;;;;;38.02;24.27;;;;;;;7.97;79.69;100717.31;2019087;88;28668;-62
2022/11/02 01:08:13;;;;;;;38.65;23.62;;;;;;;7.93;79.71;100713.47;2019006;88;30992;-63
2022/11/02 01:11:21;;;;;;;45.58;28.02;;;;;;;7.88;79.73;100713.62;2018978;88;33729;-62
2022/11/02 01:14:23;;;;;;;45.43;26.45;;;;;;;7.83;79.85;100713.77;2040378;87;30470;-63
2022/11/02 01:17:24;;;;;;;46.35;26.73;;;;;;;7.79;79.82;100709.45;2045169;87;27640;-62
2022/11/02 01:20:25;;;;;;;42.50;26.10;;;;;;;7.73;79.85;100713.19;2044829;87;29128;-65
2022/11/02 01:23:27;;;;;;;44.53;25.90;;;;;;;7.70;79.82;100713.27;2032228;87;30481;-62
2022/11/02 01:26:28;;;;;;;42.83;24.00;;;;;;;7.64;79.85;100708.13;2019621;87;34150;-62
2022/11/02 01:29:29;;;;;;;42.33;26.40;;;;;;;7.61;79.89;100712.23;2011822;88;29744;-61
2022/11/02 01:32:30;;;;;;;43.15;25.27;;;;;;;7.57;79.90;100711.44;2022442;87;27779;-62
2022/11/02 01:35:32;;;;;;;35.75;23.07;;;;;;;7.54;80.00;100712.00;2017531;87;28767;-62
2022/11/02 01:38:33;;;;;;;34.05;23.15;;;;;;;7.49;79.97;100708.15;2037806;87;31451;-62
2022/11/02 01:41:34;;;;;;;39.70;24.27;;;;;;;7.45;79.93;100703.34;2037947;87;33454;-62
2022/11/02 01:44:36;;;;;;;40.40;24.92;;;;;;;7.41;79.94;100711.48;2020154;87;30349;-62
2022/11/02 01:47:41;;;;;;;40.17;23.65;;;;;;;7.37;79.96;100718.71;2051741;86;27719;-63
2022/11/02 01:50:42;;;;;;;38.65;23.38;;;;;;;7.34;79.97;100715.27;2051522;86;29471;-63
2022/11/02 01:53:46;;;;;;;38.85;23.45;;;;;;;7.30;80.07;100716.69;2064802;85;31088;-64
2022/11/02 01:56:51;;;;;;;39.15;23.45;;;;;;;7.27;80.02;100717.25;2055512;85;33371;-63
2022/11/02 02:00:01;;;;;;;35.68;22.52;;;;;;;7.23;80.07;100716.91;2075172;85;30126;-63
2022/11/02 02:03:17;;;;;;;39.45;22.80;;;;;;;7.20;80.06;100709.86;2066934;85;27752;-62
2022/11/02 02:06:18;;;;;;;37.25;23.50;;;;;;;7.15;80.11;100719.33;2051437;86;29433;-64
2022/11/02 02:09:20;;;;;;;37.25;22.45;;;;;;;7.12;80.20;100712.75;2051580;86;32301;-63
2022/11/02 02:12:22;;;;;;;38.40;24.57;;;;;;;7.10;80.35;100707.95;2052700;85;32961;-63
2022/11/02 02:15:29;;;;;;;35.17;22.75;;;;;;;7.07;80.30;100710.70;2051508;86;29723;-63
2022/11/02 02:18:39;;;;;;;36.03;21.40;;;;;;;7.06;80.48;100712.05;2051401;86;27763;-63
2022/11/02 02:22:23;;;;;;;35.17;22.90;;;;;;;7.03;80.45;100715.69;2051688;86;29147;-64
2022/11/02 02:25:51;;;;;;;35.35;21.45;;;;;;;6.99;80.49;100710.91;2018871;88;31446;-64
2022/11/02 02:29:00;;;;;;;40.30;22.87;;;;;;;6.97;80.61;100719.84;2018615;88;33360;-63
2022/11/02 02:32:14;;;;;;;38.53;21.57;;;;;;;6.94;80.64;100726.14;2016733;86;27711;-64
2022/11/02 02:35:36;;;;;;;34.45;22.00;;;;;;;6.94;80.74;100727.95;2029258;86;27741;-64
2022/11/02 02:38:45;;;;;;;34.70;21.97;;;;;;;6.92;80.80;100729.30;2042378;86;28725;-64
2022/11/02 02:42:03;;;;;;;34.40;21.48;;;;;;;6.90;80.85;100728.94;2042785;87;31093;-63
2022/11/02 02:45:19;;;;;;;32.25;20.97;;;;;;;6.88;80.79;100732.09;2060998;85;32946;-63
2022/11/02 02:48:23;;;;;;;35.70;21.45;;;;;;;6.85;80.91;100731.73;2055234;86;29508;-62
2022/11/02 02:51:27;;;;;;;34.38;22.62;;;;;;;6.85;81.03;100731.73;2066660;86;27631;-63
2022/11/02 02:54:38;;;;;;;32.65;21.48;;;;;;;6.83;80.95;100732.23;2011239;87;29293;-62
2022/11/02 02:57:40;;;;;;;29.15;19.12;;;;;;;6.82;81.01;100731.81;1973498;90;32256;-62
2022/11/02 03:00:42;;;;;;;32.55;20.25;;;;;;;6.80;81.12;100725.17;2006656;88;34123;-62
2022/11/02 03:03:44;;;;;;;32.58;20.37;;;;;;;6.78;81.05;100731.03;1997522;88;29386;-65
2022/11/02 03:06:49;;;;;;;31.27;19.85;;;;;;;6.78;81.12;100732.36;2026522;87;27687;-63
2022/11/02 03:09:56;;;;;;;32.78;20.72;;;;;;;6.77;81.29;100734.61;2017247;87;29085;-62
2022/11/02 03:13:12;;;;;;;31.30;19.82;;;;;;;6.77;81.25;100732.38;2021027;87;32427;-63
2022/11/02 03:16:31;;;;;;;30.05;18.92;;;;;;;6.76;81.36;100730.19;2009913;88;33775;-63
2022/11/02 03:20:11;;;;;;;31.82;19.87;;;;;;;6.75;81.34;100736.43;1976596;89;30171;-62
2022/11/02 03:23:27;;;;;;;27.17;18.75;;;;;;;6.75;81.31;100734.20;2015349;87;27701;-62
2022/11/02 03:26:53;;;;;;;32.20;19.65;;;;;;;6.72;81.27;100732.52;1992546;89;29148;-62
2022/11/02 03:30:19;;;;;;;29.30;19.42;;;;;;;6.69;81.23;100733.92;2026111;87;31160;-62
2022/11/02 03:33:29;;;;;;;26.85;17.27;;;;;;;6.66;81.26;100726.90;1991198;88;34172;-62
2022/11/02 03:36:35;;;;;;;31.33;18.12;;;;;;;6.62;81.24;100730.55;2050531;86;29365;-62
2022/11/02 03:39:44;;;;;;;27.82;17.48;;;;;;;6.59;81.21;100731.09;2051385;86;27856;-62
2022/11/02 03:42:46;;;;;;;27.07;18.00;;;;;;;6.57;81.25;100732.92;2055058;85;28735;-63
2022/11/02 03:45:55;;;;;;;28.42;17.95;;;;;;;6.53;81.15;100740.98;2075177;85;32062;-62
2022/11/02 03:48:56;;;;;;;28.42;18.27;;;;;;;6.50;81.13;100742.37;2074973;84;33990;-62
2022/11/02 03:52:02;;;;;;;30.95;18.23;;;;;;;6.46;81.18;100743.36;2074696;85;30722;-62
2022/11/02 03:55:19;;;;;;;28.40;16.60;;;;;;;6.43;81.18;100746.13;2053165;85;27764;-62
2022/11/02 03:58:20;;;;;;;31.02;17.73;;;;;;;6.38;81.15;100742.23;1980210;89;29538;-63
2022/11/02 04:01:24;;;;;;;26.85;17.73;;;;;;;6.34;81.17;100740.58;1980549;89;31646;-65
2022/11/02 04:04:25;;;;;;;33.05;17.55;;;;;;;6.32;81.16;100742.84;1993276;89;33555;-63
2022/11/02 04:08:19;;;;;;;27.48;17.87;;;;;;;6.29;81.15;100746.94;1980572;89;29464;-64
2022/11/02 04:14:36;;;;;;;35.00;17.95;;;;;;;6.25;81.17;100751.44;1988773;88;27769;-63
2022/11/02 04:20:19;;;;;;;27.95;16.37;;;;;;;6.17;81.21;100773.38;1962825;90;34189;-64
2022/11/02 04:26:40;;;;;;;26.25;16.97;;;;;;;6.10;81.25;100775.31;1949955;91;27830;-64
2022/11/02 04:29:42;;;;;;;27.48;17.60;;;;;;;6.07;81.31;100773.57;1949566;91;30161;-63
2022/11/02 04:36:07;;;;;;;30.35;16.70;;;;;;;6.02;81.28;100770.17;2038993;87;34333;-64
2022/11/02 04:39:09;;;;;;;27.90;17.50;;;;;;;6.00;81.39;100771.98;2044934;87;29395;-63
2022/11/02 04:42:10;;;;;;;25.95;17.67;;;;;;;5.99;81.39;100766.65;2025805;87;28162;-63
2022/11/02 04:45:11;;;;;;;32.08;17.77;;;;;;;5.96;81.47;100758.77;2019991;87;27963;-63
2022/11/02 04:48:12;;;;;;;31.85;17.77;;;;;;;5.95;81.48;100754.36;2012032;88;31531;-63
2022/11/02 04:51:13;;;;;;;29.12;17.77;;;;;;;5.92;81.51;100755.28;2030903;87;33401;-62
2022/11/02 04:54:15;;;;;;;29.00;17.48;;;;;;;5.88;81.47;100757.14;2001575;88;30084;-63
2022/11/02 04:57:16;;;;;;;34.23;18.60;;;;;;;5.86;81.51;100763.42;1999062;89;27713;-63
2022/11/02 05:00:21;;;;;;;28.23;17.40;;;;;;;5.84;81.50;100759.91;2000589;88;29027;-63
2022/11/02 05:03:22;;;;;;;30.95;18.45;;;;;;;5.82;81.44;100760.40;2045355;87;31484;-63
2022/11/02 05:06:24;;;;;;;32.45;17.70;;;;;;;5.79;81.65;100760.02;2045215;87;33768;-64
2022/11/02 05:09:25;;;;;;;36.13;19.10;;;;;;;5.77;81.56;100757.38;2045162;87;30151;-63
2022/11/02 05:12:26;;;;;;;39.15;18.62;;;;;;;5.74;81.54;100761.90;2023951;87;27759;-65
2022/11/02 05:15:28;;;;;;;34.30;17.67;;;;;;;5.73;81.61;100763.66;1985396;89;28702;-65
2022/11/02 05:18:30;;;;;;;33.40;18.95;;;;;;;5.68;81.55;100763.35;1998968;89;31447;-64
2022/11/02 05:21:31;;;;;;;33.78;17.95;;;;;;;5.66;81.58;100761.18;2003548;88;33385;-64
2022/11/02 05:24:32;;;;;;;36.08;17.98;;;;;;;5.61;81.54;100764.84;1998974;89;28805;-63
2022/11/02 05:27:34;;;;;;;35.00;18.95;;;;;;;5.60;81.57;100758.20;2020130;88;27726;-64
2022/11/02 05:30:35;;;;;;;40.35;18.42;;;;;;;5.59;81.62;100761.77;1998968;89;29886;-62
2022/11/02 05:33:36;;;;;;;32.90;18.77;;;;;;;5.56;81.71;100773.34;2007008;88;32275;-62
2022/11/02 05:36:38;;;;;;;39.18;22.10;;;;;;;5.54;81.74;100772.50;2044896;87;34286;-64
2022/11/02 05:39:39;;;;;;;29.40;17.92;;;;;;;5.54;82.00;100768.52;2045110;87;30539;-64
2022/11/02 05:42:40;;;;;;;30.17;18.65;;;;;;;5.53;81.94;100768.09;2034085;87;27858;-65
2022/11/02 05:45:41;;;;;;;31.60;18.48;;;;;;;5.53;82.03;100761.92;2019490;87;29480;-64
2022/11/02 05:48:43;;;;;;;33.53;18.62;;;;;;;5.53;81.99;100776.53;2033247;87;31431;-64
2022/11/02 05:51:44;;;;;;;29.15;17.60;;;;;;;5.52;81.96;100779.63;2034104;87;34308;-64
2022/11/02 05:54:45;;;;;;;32.15;19.25;;;;;;;5.53;81.92;100779.20;2045001;86;29714;-63
2022/11/02 05:57:54;;;;;;;32.28;19.62;;;;;;;5.51;81.95;100779.20;2045303;86;27712;-62
2022/11/02 06:01:01;;;;;;;26.17;17.48;;;;;;;5.52;81.98;100786.74;2044878;86;28705;-62
2022/11/02 06:04:03;;;;;;;29.98;19.80;;;;;;;5.52;81.97;100780.09;2034373;87;31434;-63
2022/11/02 06:07:05;;;;;;;36.85;20.27;;;;;;;5.52;81.99;100785.41;2032802;87;34429;-62
2022/11/02 06:10:07;;;;;;;37.98;21.37;;;;;;;5.52;82.05;100794.25;2033158;87;28755;-63
2022/11/02 06:13:09;;;;;;;33.83;18.92;;;;;;;5.55;82.11;100795.52;2040047;87;27710;-63
2022/11/02 06:16:14;;;;;;;31.12;19.90;;;;;;;5.57;82.24;100792.81;2045433;87;28771;-63
2022/11/02 06:19:15;;;;;;;31.70;19.15;;;;;;;5.61;82.25;100794.51;2045111;85;32368;-63
2022/11/02 06:22:16;;;;;;;31.87;20.12;;;;;;;5.64;82.28;100799.77;2041730;86;33403;-62
2022/11/02 06:25:18;;;;;;;36.95;19.15;;;;;;;5.67;82.32;100799.70;2033136;87;29381;-62
2022/11/02 06:28:20;;;;;;;34.10;19.37;;;;;;;5.72;82.35;100799.60;2033199;87;27700;-62
2022/11/02 06:31:21;;;;;;;32.98;19.45;;;;;;;5.76;82.53;100794.17;2033506;87;28724;-63
2022/11/02 06:34:22;;;;;;;47.50;26.48;;;;;;;5.84;82.57;100803.31;2044353;86;31434;-63
2022/11/02 06:37:23;;;;;;;68.00;30.62;;;;;;;5.90;82.72;100807.19;2045728;87;33024;-63
2022/11/02 06:40:27;;;;;;;78.97;33.38;;;;;;;5.99;82.82;100815.84;2044816;86;29410;-63
2022/11/02 06:43:28;;;;;;;81.92;36.55;;;;;;;6.07;82.90;100815.27;2037324;86;28246;-63
2022/11/02 06:46:30;;;;;;;88.97;37.60;;;;;;;6.16;83.05;100814.19;2034311;87;29892;-62
2022/11/02 06:49:31;;;;;;;76.90;35.05;;;;;;;6.26;83.12;100819.70;2019441;88;31080;-63
2022/11/02 06:52:32;;;;;;;84.67;37.35;;;;;;;6.34;83.14;100819.52;2004492;88;33838;-63
2022/11/02 06:55:33;;;;;;;73.40;33.28;;;;;;;6.44;83.26;100820.17;2045572;87;29362;-62
2022/11/02 06:58:35;;;;;;;72.35;33.30;;;;;;;6.54;83.40;100819.03;2044915;87;27735;-62
2022/11/02 07:01:36;;;;;;;67.22;33.65;;;;;;;6.64;83.51;100826.34;2044883;87;29070;-64
2022/11/02 07:04:37;;;;;;;68.25;33.88;;;;;;;6.76;83.68;100823.39;1984544;88;32029;-62
2022/11/02 07:07:39;;;;;;;66.37;33.80;;;;;;;6.90;83.83;100818.16;1987810;89;34215;-63
2022/11/02 07:10:40;;;;;;;66.80;31.55;;;;;;;7.06;84.16;100819.50;1987752;89;29338;-64
2022/11/02 07:13:41;;;;;;;61.00;32.00;;;;;;;7.26;84.46;100823.42;2000408;87;27699;-62
2022/11/02 07:16:43;;;;;;;73.10;34.38;;;;;;;7.46;84.82;100820.20;1998680;89;29923;-64
2022/11/02 07:19:44;;;;;;;76.92;35.43;;;;;;;7.67;84.96;100813.36;1998784;89;31427;-64
2022/11/02 07:22:56;;;;;;;67.42;32.65;;;;;;;7.93;85.38;100820.17;2027661;87;34317;-63
2022/11/02 07:25:57;;;;;;;56.15;28.65;;;;;;;8.21;85.66;100825.06;2042564;86;29396;-64
2022/11/02 07:28:58;;;;;;;53.83;26.85;;;;;;;8.52;85.79;100825.92;2042835;86;27652;-64
2022/11/02 07:31:59;;;;;;;51.60;24.87;;;;;;;8.81;86.02;100830.75;2042341;86;30083;-64
2022/11/02 07:35:01;;;;;;;61.28;30.50;;;;;;;9.08;85.87;100826.74;2018422;87;33129;-64
2022/11/02 07:38:05;;;;;;;52.95;29.87;;;;;;;9.33;85.78;100824.52;2018152;88;33041;-64
2022/11/02 07:41:06;;;;;;;66.28;33.45;;;;;;;9.56;85.68;100831.70;2018476;88;29336;-65
2022/11/02 07:44:07;;;;;;;55.30;29.02;;;;;;;9.77;85.49;100824.67;2017894;88;27626;-63
2022/11/02 07:47:09;;;;;;;43.70;26.73;;;;;;;9.96;85.36;100825.30;2051559;86;29934;-64
2022/11/02 07:50:12;;;;;;;45.28;25.48;;;;;;;10.19;85.41;100815.03;2051533;86;31398;-64
2022/11/02 07:53:13;;;;;;;43.33;22.27;;;;;;;10.44;85.40;100816.29;2062593;85;34165;-64
2022/11/02 07:56:15;;;;;;;35.52;20.82;;;;;;;10.71;85.30;100814.77;2075502;85;29714;-65
2022/11/02 07:59:16;;;;;;;34.55;19.35;;;;;;;10.98;85.25;100822.55;2075250;85;28004;-64
2022/11/02 08:02:17;;;;;;;35.68;18.23;;;;;;;11.24;85.04;100817.40;2071021;85;28690;-63
2022/11/02 08:05:18;;;;;;;33.18;18.42;;;;;;;11.49;84.86;100819.45;2051536;86;31238;-64
2022/11/02 08:08:22;;;;;;;32.23;17.32;;;;;;;11.72;84.40;100810.35;2051958;86;33364;-63
2022/11/02 08:11:25;;;;;;;31.42;16.05;;;;;;;11.91;84.13;100802.33;2051411;86;30143;-63
2022/11/02 08:14:27;;;;;;;26.52;14.38;;;;;;;12.11;83.58;100807.23;2072412;85;27680;-63
2022/11/02 08:17:28;;;;;;;30.35;15.93;;;;;;;12.25;83.33;100802.05;2074759;85;29069;-63
2022/11/02 08:20:30;;;;;;;29.72;15.18;;;;;;;12.39;82.94;100805.42;2075105;85;31410;-63
2022/11/02 08:23:31;;;;;;;24.12;13.55;;;;;;;12.48;82.49;100794.69;2061078;85;33007;-63
2022/11/02 08:26:32;;;;;;;24.25;13.05;;;;;;;12.57;82.28;100802.31;2051848;86;29658;-64
2022/11/02 08:29:35;;;;;;;24.85;13.40;;;;;;;12.68;82.06;100799.06;2051586;86;27686;-65
2022/11/02 08:32:36;;;;;;;28.90;13.05;;;;;;;12.77;81.80;100789.66;2057572;85;29092;-65
2022/11/02 08:35:39;;;;;;;18.35;11.03;;;;;;;12.86;81.41;100789.20;2078694;85;32408;-64
2022/11/02 08:38:41;;;;;;;20.15;10.28;;;;;;;12.96;81.20;100786.91;2080203;85;33373;-65
2022/11/02 08:41:42;;;;;;;18.00;10.43;;;;;;;13.07;81.08;100799.81;2042531;87;29716;-64
2022/11/02 08:44:44;;;;;;;21.62;9.55;;;;;;;13.18;80.83;100794.72;2016078;87;27736;-64
2022/11/02 08:47:45;;;;;;;14.87;8.08;;;;;;;13.29;80.12;100796.85;2024216;87;29040;-64
2022/11/02 08:50:48;;;;;;;15.53;8.58;;;;;;;13.38;79.67;100793.66;2000124;89;31436;-64
2022/11/02 08:53:49;;;;;;;12.93;7.03;;;;;;;13.48;79.35;100792.72;2034339;87;33053;-64
2022/11/02 08:56:50;;;;;;;11.85;6.35;;;;;;;13.60;79.06;100791.66;2042463;86;30482;-65
2022/11/02 08:59:51;;;;;;;14.03;6.97;;;;;;;13.68;78.17;100790.77;2042671;87;28097;-65
2022/11/02 09:03:10;;;;;;;10.85;6.53;;;;;;;13.77;77.67;100782.17;2034803;87;29949;-63
2022/11/02 09:06:12;;;;;;;11.30;5.70;;;;;;;13.88;77.47;100790.16;2020237;88;32265;-65
2022/11/02 09:09:13;;;;;;;12.03;5.67;;;;;;;13.97;76.96;100793.66;2020047;88;33064;-64
2022/11/02 09:12:14;;;;;;;12.28;5.28;;;;;;;14.06;76.59;100793.17;2020466;88;29692;-64
2022/11/02 09:15:16;;;;;;;14.73;6.40;;;;;;;14.16;75.95;100785.89;2042625;87;27637;-64
2022/11/02 09:18:19;;;;;;;12.63;5.87;;;;;;;14.22;75.00;100790.45;2042897;87;29571;-63
2022/11/02 09:21:20;;;;;;;8.20;4.72;;;;;;;14.22;74.94;100778.33;2042848;87;31899;-61
2022/11/02 09:24:21;;;;;;;9.03;4.85;;;;;;;14.33;74.08;100786.27;2024502;86;34062;-64
2022/11/02 09:27:23;;;;;;;13.25;5.00;;;;;;;14.38;74.17;100790.45;2033017;86;29350;-65
2022/11/02 09:30:27;;;;;;;11.48;6.12;;;;;;;14.46;73.58;100787.77;2027747;86;28043;-64
2022/11/02 09:33:29;;;;;;;10.82;5.28;;;;;;;14.35;73.42;100757.40;2034368;86;29554;-65
2022/11/02 09:36:31;;;;;;;8.78;4.70;;;;;;;14.58;72.53;100789.75;2003910;87;31706;-65
2022/11/02 09:39:32;;;;;;;10.55;4.83;;;;;;;14.50;72.90;100769.98;1927917;89;33500;-64
2022/11/02 09:43:03;;;;;;;10.28;4.33;;;;;;;14.70;72.14;100790.89;1999242;88;30476;-65
2022/11/02 09:46:19;;;;;;;10.88;4.50;;;;;;;14.73;71.38;100788.88;1965023;90;27729;-65
2022/11/02 09:49:24;;;;;;;10.28;4.55;;;;;;;14.78;71.59;100789.09;1948723;90;29306;-66
2022/11/02 09:52:35;;;;;;;7.58;3.70;;;;;;;14.84;71.09;100776.59;1973477;89;31062;-63
2022/11/02 09:55:42;;;;;;;13.15;4.03;;;;;;;14.88;71.02;100783.55;1972690;89;33794;-65
2022/11/02 09:58:46;;;;;;;8.65;4.03;;;;;;;14.94;70.76;100792.61;1973391;89;29352;-65
2022/11/02 10:02:12;;;;;;;7.22;3.33;;;;;;;14.99;70.04;100790.97;1973413;89;27808;-65
2022/11/02 10:05:53;;;;;;;10.93;3.83;;;;;;;15.06;69.91;100787.45;1966851;89;28717;-64
2022/11/02 10:09:15;;;;;;;9.58;3.72;;;;;;;15.10;69.51;100786.28;1967267;89;31786;-64
2022/11/02 10:12:28;;;;;;;9.05;3.77;;;;;;;15.15;69.48;100783.68;1972668;89;33474;-64
2022/11/02 10:15:44;;;;;;;8.45;3.65;;;;;;;15.20;68.86;100783.42;1973368;89;29904;-63
2022/11/02 10:18:49;;;;;;;10.25;4.47;;;;;;;15.23;68.45;100788.61;1950265;90;27697;-66
2022/11/02 10:21:55;;;;;;;6.50;3.52;;;;;;;15.25;67.64;100781.28;1952383;88;28767;-63
2022/11/02 10:24:57;;;;;;;7.58;3.42;;;;;;;15.28;67.92;100778.91;1975623;88;31056;-67
2022/11/02 10:28:09;;;;;;;8.53;3.10;;;;;;;15.28;66.99;100778.41;1999884;88;34144;-67
2022/11/02 10:31:25;;;;;;;10.05;3.35;;;;;;;15.27;65.95;100787.46;2001610;88;30146;-65
2022/11/02 10:34:28;;;;;;;7.90;3.50;;;;;;;15.26;66.44;100789.77;2003993;86;27623;-63
2022/11/02 10:37:59;;;;;;;7.97;3.50;;;;;;;15.28;65.19;100789.70;2001852;87;29102;-63
2022/11/02 10:41:11;;;;;;;6.80;3.05;;;;;;;15.27;65.89;100791.52;1928055;91;32261;-64
2022/11/02 10:44:33;;;;;;;10.08;3.83;;;;;;;15.26;65.87;100788.42;1968068;89;34129;-63
2022/11/02 10:47:42;;;;;;;6.10;3.22;;;;;;;15.29;65.77;100788.23;1967903;89;28945;-64
2022/11/02 10:51:06;;;;;;;7.10;3.55;;;;;;;15.33;65.72;100787.56;1967576;90;27713;-63
2022/11/02 10:54:14;;;;;;;13.85;3.77;;;;;;;15.34;64.85;100791.53;1962098;89;29089;-65
2022/11/02 10:57:24;;;;;;;7.45;3.40;;;;;;;15.34;65.32;100793.34;1936416;91;31239;-65
2022/11/02 11:00:32;;;;;;;9.68;3.20;;;;;;;15.34;65.04;100779.84;1967628;89;34147;-63
2022/11/02 11:04:06;;;;;;;11.00;3.30;;;;;;;15.33;64.36;100788.45;1967321;89;30602;-64
2022/11/02 11:07:22;;;;;;;5.80;3.22;;;;;;;15.31;64.91;100780.92;1959963;89;27813;-63
2022/11/02 11:10:24;;;;;;;7.15;3.83;;;;;;;15.31;64.92;100786.78;1967976;89;28750;-63
2022/11/02 11:13:27;;;;;;;7.60;3.35;;;;;;;15.21;64.66;100756.82;1936182;91;32303;-62
2022/11/02 11:16:41;;;;;;;11.78;3.85;;;;;;;15.32;64.62;100778.61;2033913;86;32731;-64
2022/11/02 11:19:47;;;;;;;7.67;3.00;;;;;;;15.33;63.85;100775.41;2032711;86;28517;-62
2022/11/02 11:23:10;;;;;;;7.95;3.10;;;;;;;15.32;64.33;100776.37;2033751;86;27664;-63
2022/11/02 11:26:27;;;;;;;10.28;3.37;;;;;;;15.34;64.12;100772.64;2031553;86;29098;-64
2022/11/02 11:29:34;;;;;;;11.88;3.12;;;;;;;15.36;63.39;100771.17;1997537;87;30852;-62
2022/11/02 11:32:36;;;;;;;7.75;3.30;;;;;;;15.37;63.79;100776.11;2000674;88;32977;-63
2022/11/02 11:35:38;;;;;;;7.92;3.15;;;;;;;15.39;63.55;100766.94;2033156;86;29369;-63
2022/11/02 11:38:44;;;;;;;12.23;2.85;;;;;;;15.41;63.32;100756.92;2034519;86;27561;-67
2022/11/02 11:41:46;;;;;;;7.87;2.83;;;;;;;15.43;62.92;100754.11;2033976;86;29062;-65
2022/11/02 11:44:55;;;;;;;8.58;2.87;;;;;;;15.44;62.95;100745.93;2034085;86;32219;-64
2022/11/02 11:48:30;;;;;;;8.43;2.77;;;;;;;15.46;62.93;100739.95;2005371;86;33095;-66
2022/11/02 11:51:41;;;;;;;7.62;3.12;;;;;;;15.49;63.06;100734.83;2029286;87;29718;-65
2022/11/02 11:54:57;;;;;;;8.73;3.80;;;;;;;15.50;62.80;100727.97;1994423;88;27682;-66
2022/11/02 11:58:15;;;;;;;6.35;2.77;;;;;;;15.50;62.33;100727.12;2017572;86;30233;-67
2022/11/02 12:01:17;;;;;;;7.90;3.87;;;;;;;15.52;62.38;100733.30;2019669;86;31026;-66
2022/11/02 12:04:27;;;;;;;7.00;2.72;;;;;;;15.52;62.05;100729.70;2029373;86;33355;-65
2022/11/02 12:07:40;;;;;;;7.03;2.92;;;;;;;15.54;62.02;100731.83;2024184;86;29694;-66
2022/11/02 12:11:02;;;;;;;3.85;2.60;;;;;;;15.56;61.39;100722.66;2027536;86;27718;-68
2022/11/02 12:14:21;;;;;;;10.72;3.10;;;;;;;15.58;61.63;100722.58;1980021;88;28537;-66
2022/11/02 12:17:31;;;;;;;6.25;3.40;;;;;;;15.59;61.18;100713.52;2027364;86;31439;-65
2022/11/02 12:20:49;;;;;;;12.05;3.55;;;;;;;15.59;61.28;100728.37;2029358;86;33379;-66
2022/11/02 12:24:12;;;;;;;8.98;3.12;;;;;;;15.57;61.15;100718.14;2034608;86;30085;-66
2022/11/02 12:27:50;;;;;;;8.13;3.12;;;;;;;15.56;61.83;100717.26;2031218;87;27668;-64
2022/11/02 12:31:01;;;;;;;7.12;3.08;;;;;;;15.58;61.70;100715.33;2031888;87;29130;-67
2022/11/02 12:34:34;;;;;;;8.35;3.70;;;;;;;15.60;61.52;100717.95;2016366;87;31606;-67
2022/11/02 12:37:55;;;;;;;7.28;2.77;;;;;;;15.62;61.42;100715.52;1962966;90;33051;-67
2022/11/02 12:41:13;;;;;;;9.78;3.17;;;;;;;15.64;61.29;100717.65;1944466;91;29619;-67
2022/11/02 12:44:32;;;;;;;10.10;3.10;;;;;;;15.62;61.39;100718.23;1916690;92;27686;-67
2022/11/02 12:47:51;;;;;;;10.45;4.53;;;;;;;15.61;61.35;100719.69;1921196;91;29869;-67
2022/11/02 12:51:01;;;;;;;12.55;3.27;;;;;;;15.59;61.51;100716.22;1943890;91;31102;-67
2022/11/02 12:54:13;;;;;;;7.62;2.83;;;;;;;15.59;61.35;100714.86;1943744;90;34458;-66
2022/11/02 12:57:20;;;;;;;8.28;3.45;;;;;;;15.58;61.45;100712.63;1943218;91;30481;-67
2022/11/02 13:00:23;;;;;;;7.75;3.05;;;;;;;15.57;61.46;100707.34;1943661;91;27815;-66
2022/11/02 13:03:35;;;;;;;4.92;3.00;;;;;;;15.55;61.37;100712.85;1943672;91;28684;-67
2022/11/02 13:06:45;;;;;;;13.62;3.30;;;;;;;15.52;61.12;100714.39;1943855;91;32032;-66
2022/11/02 13:09:54;;;;;;;6.20;3.17;;;;;;;15.50;60.86;100713.12;1943521;90;33509;-67
2022/11/02 13:12:58;;;;;;;7.10;3.25;;;;;;;15.50;60.70;100714.97;1948847;89;30520;-66
2022/11/02 13:16:00;;;;;;;6.37;3.13;;;;;;;15.49;60.79;100711.87;1987085;89;28323;-67
2022/11/02 13:19:03;;;;;;;10.05;3.40;;;;;;;15.48;60.97;100708.30;1986811;89;29071;-67
2022/11/02 13:22:05;;;;;;;6.62;2.98;;;;;;;15.50;60.91;100716.32;2013300;88;31494;-67
2022/11/02 13:25:26;;;;;;;9.73;3.60;;;;;;;15.47;60.70;100714.66;1997633;88;33042;-67
2022/11/02 13:28:51;;;;;;;10.53;3.05;;;;;;;15.46;60.80;100720.17;2019778;88;30314;-67
2022/11/02 13:32:07;;;;;;;7.37;3.33;;;;;;;15.41;60.62;100722.28;2019852;88;28170;-68
2022/11/02 13:35:33;;;;;;;9.55;2.70;;;;;;;15.36;60.54;100723.94;2020680;86;30053;-67
2022/11/02 13:38:43;;;;;;;13.60;3.10;;;;;;;15.14;60.84;100693.38;2009752;88;31265;-67
2022/11/02 13:41:59;;;;;;;7.35;2.45;;;;;;;15.25;61.06;100742.15;1976394;89;33162;-67
2022/11/02 13:45:32;;;;;;;7.70;2.85;;;;;;;15.19;61.22;100738.00;2009514;88;29737;-67
2022/11/02 13:49:02;;;;;;;12.85;2.83;;;;;;;15.17;61.30;100740.42;1975452;89;27647;-67
2022/11/02 13:52:13;;;;;;;8.95;2.62;;;;;;;15.15;61.38;100745.89;2020543;87;28686;-66
2022/11/02 13:55:28;;;;;;;9.73;3.47;;;;;;;15.17;61.67;100745.32;1973486;90;31109;-66
2022/11/02 13:58:49;;;;;;;12.20;4.45;;;;;;;15.01;61.72;100714.85;2019401;87;37180;-66
2022/11/02 14:01:52;;;;;;;10.20;3.15;;;;;;;15.25;61.76;100744.00;1973489;90;30121;-67
2022/11/02 14:04:54;;;;;;;8.05;3.05;;;;;;;15.30;61.96;100750.84;2024643;87;27701;-67
2022/11/02 14:08:02;;;;;;;11.10;3.25;;;;;;;15.33;61.93;100752.00;2026652;87;28673;-66
2022/11/02 14:11:11;;;;;;;10.58;2.87;;;;;;;15.38;61.90;100756.25;2026597;87;31867;-66
2022/11/02 14:14:20;;;;;;;8.20;3.15;;;;;;;15.41;61.99;100753.33;2024867;87;33367;-67
2022/11/02 14:17:22;;;;;;;8.95;3.20;;;;;;;15.43;61.88;100756.34;2025959;87;29345;-66
2022/11/02 14:20:43;;;;;;;9.03;3.52;;;;;;;15.43;61.88;100749.59;2026466;87;28375;-66
2022/11/02 14:23:44;;;;;;;13.48;4.15;;;;;;;15.43;61.77;100754.99;1978456;89;29432;-68
2022/11/02 14:26:55;;;;;;;17.57;4.78;;;;;;;15.44;61.82;100755.38;1978024;89;31121;-66
2022/11/02 14:29:57;;;;;;;12.37;3.70;;;;;;;15.43;61.77;100756.34;1945386;91;33942;-67
2022/11/02 14:33:04;;;;;;;9.55;3.65;;;;;;;15.43;61.91;100754.99;1977844;89;30403;-66
2022/11/02 14:36:11;;;;;;;8.18;4.25;;;;;;;15.42;61.88;100750.55;1945561;90;27685;-66